Latest Weather Observations for West Wyalong

IDN60801

Issued at 10:35 pm EDT Friday 24 October 2014 (issued every 30 minutes, with the page automatically refreshed every 10 minutes)

About weather observations | Map of weather stations | Latest weather observations for NSW | Other Formats
Station Details ID: 050017 Name: WEST WYALONG AIRPORT AWS Lat: -33.94 Lon: 147.20 Height: 257.0 m
Data from the previous 72 hours. | See also: Recent months for locations in New South Wales
Date/Time
EDT
Temp
°C
App
Temp
°C
Dew
Point
Rel
Hum
%
Delta-T
°C
Wind Press
QNH
hPa
Press
MSL
hPa
Rain
since 9 am
mm
Dir
 
Spd
km/h
Gust
km/h
Spd
kts
Gust
kts
24/10:30pm 22.7 18.9 3.8 29 9.3 WSW 13 17 7 9 1015.4 1015.0 0.0
24/10:00pm 22.0 18.7 2.7 28 9.2 WSW 9 11 5 6 1015.2 1014.7 0.0
24/09:30pm 24.4 20.8 3.1 25 10.5 WSW 11 15 6 8 1015.0 1014.5 0.0
24/09:00pm 25.6 21.7 3.5 24 11.0 WSW 13 17 7 9 1014.7 1014.2 0.0
24/08:30pm 27.3 22.0 3.1 21 12.1 WSW 20 24 11 13 1014.3 1013.8 0.0
24/08:00pm 28.3 23.0 3.2 20 12.7 WSW 20 28 11 15 1013.8 1013.3 0.0
24/07:30pm 29.7 24.3 4.4 20 13.2 WSW 22 33 12 18 1013.2 1012.7 0.0
24/07:00pm 31.0 24.3 5.4 20 13.6 SW 30 37 16 20 1012.6 1012.2 0.0
24/06:30pm 32.4 26.9 5.8 19 14.4 WSW 24 32 13 17 1012.0 1011.6 0.0
24/06:00pm 33.0 26.7 5.5 18 14.8 WSW 28 41 15 22 1011.7 1011.2 0.0
24/05:30pm 34.2 28.9 4.8 16 15.8 WSW 22 37 12 20 1011.3 1010.8 0.0
24/05:00pm 33.3 26.6 5.8 18 14.9 SW 30 41 16 22 1011.2 1010.7 0.0
24/04:30pm 34.4 26.8 3.1 14 16.4 W 32 41 17 22 1011.1 1010.6 0.0
24/04:00pm 34.9 28.2 3.5 14 16.6 W 28 41 15 22 1010.9 1010.4 0.0
24/03:30pm 35.5 29.8 2.9 13 17.1 WNW 22 35 12 19 1011.0 1010.5 0.0
24/03:00pm 35.3 28.8 2.7 13 17.0 W 26 30 14 16 1011.3 1010.8 0.0
24/02:30pm 36.3 30.7 5.5 15 16.9 WNW 24 39 13 21 1011.6 1011.1 0.0
24/02:00pm 35.6 31.1 6.8 17 16.1 NW 20 39 11 21 1012.0 1011.6 0.0
24/01:30pm 35.5 31.1 7.5 18 15.8 WNW 20 28 11 15 1012.3 1011.9 0.0
24/01:00pm 33.6 29.4 7.5 20 14.6 N 19 24 10 13 1012.8 1012.4 0.0
24/12:30pm 33.8 30.2 8.4 21 14.4 N 17 24 9 13 1013.3 1012.8 0.0
24/12:00pm 33.3 29.0 9.4 23 13.7 N 22 32 12 17 1013.7 1013.2 0.0
24/11:30am 31.9 26.9 9.4 25 12.8 N 26 39 14 21 1014.2 1013.7 0.0
24/11:00am 31.2 25.6 10.0 27 12.2 N 30 44 16 24 1014.5 1014.0 0.0
24/10:30am 30.3 24.6 9.8 28 11.7 N 30 43 16 23 1014.7 1014.2 0.0
24/10:00am 28.6 22.4 9.3 30 10.8 N 32 41 17 22 1015.1 1014.6 0.0
24/09:30am 27.6 21.3 9.0 31 10.3 N 32 44 17 24 1015.4 1015.0 0.0
24/09:00am 26.5 20.7 9.4 34 9.5 N 30 44 16 24 1015.6 1015.2 0.0
24/08:30am 24.9 21.0 9.6 38 8.5 N 20 32 11 17 1015.9 1015.5 0.0
24/08:00am 22.6 20.3 10.4 46 6.8 NNE 13 20 7 11 1016.0 1015.6 0.0
24/07:30am 21.4 19.5 10.6 50 6.0 NNE 11 19 6 10 1016.0 1015.6 0.0
24/07:00am 20.3 18.0 10.4 53 5.4 NNE 13 17 7 9 1015.8 1015.4 0.0
24/06:30am 19.8 17.0 10.0 53 5.3 NNE 15 20 8 11 1015.6 1015.2 0.0
24/06:00am 19.9 17.4 9.8 52 5.5 NNE 13 15 7 8 1015.5 1015.1 0.0
24/05:30am 19.9 17.7 9.2 50 5.7 NE 11 15 6 8 1015.2 1014.7 0.0
24/05:00am 20.5 17.9 9.4 49 6.0 NE 13 19 7 10 1015.1 1014.6 0.0
24/04:30am 21.1 18.2 9.7 48 6.2 NE 15 20 8 11 1015.2 1014.7 0.0
24/04:00am 22.0 19.4 9.5 45 6.8 NE 13 20 7 11 1015.2 1014.7 0.0
24/03:30am 22.5 19.6 9.6 44 7.1 NE 15 22 8 12 1015.2 1014.7 0.0
24/03:00am 22.0 18.4 9.9 46 6.6 NNE 19 26 10 14 1015.2 1014.7 0.0
24/02:30am 22.4 19.0 9.2 43 7.2 NE 17 20 9 11 1015.4 1015.0 0.0
24/02:00am 22.9 19.3 8.2 39 7.8 NE 17 22 9 12 1015.7 1015.3 0.0
24/01:30am 23.2 19.4 7.7 37 8.2 NE 17 22 9 12 1015.9 1015.5 0.0
24/01:00am 23.9 20.0 7.1 34 8.8 NE 17 22 9 12 1015.9 1015.5 0.0
24/12:30am 24.1 21.8 7.3 34 8.9 E 9 17 5 9 1016.1 1015.7 0.0
24/12:00am 24.8 21.5 7.9 34 9.1 ENE 15 22 8 12 1015.9 1015.5 0.0
 
Date/Time
EDT
Temp
°C
App
Temp
°C
Dew
Point
Rel
Hum
%
Delta-T
°C
Wind Press
QNH
hPa
Press
MSL
hPa
Rain
since 9 am
mm
Dir
 
Spd
km/h
Gust
km/h
Spd
kts
Gust
kts
23/11:30pm 26.3 23.7 9.2 34 9.5 NNE 13 20 7 11 1015.6 1015.2 0.0
23/11:00pm 28.2 24.1 8.5 29 10.9 N 20 28 11 15 1015.3 1014.9 0.0
23/10:30pm 25.8 21.5 9.2 35 9.2 NNE 22 30 12 16 1015.1 1014.6 0.0
23/10:00pm 25.9 23.7 8.0 32 9.7 NNE 9 13 5 7 1015.3 1014.9 0.0
23/09:30pm 26.4 23.7 7.4 30 10.2 NNE 11 15 6 8 1015.0 1014.5 0.0
23/09:00pm 28.1 25.4 7.4 27 11.2 N 11 17 6 9 1014.9 1014.4 0.0
23/08:30pm 28.8 25.7 7.4 26 11.6 N 13 17 7 9 1014.3 1013.8 0.0
23/08:00pm 29.9 26.2 6.5 23 12.6 N 15 20 8 11 1014.0 1013.5 0.0
23/07:30pm 30.9 27.1 6.0 21 13.4 N 15 19 8 10 1013.7 1013.2 0.0
23/07:00pm 32.2 28.4 5.7 19 14.3 N 15 20 8 11 1013.7 1013.2 0.0
23/06:30pm 33.2 29.8 5.7 18 14.9 N 13 17 7 9 1013.6 1013.1 0.0
23/06:00pm 33.9 30.8 5.4 17 15.4 N 11 17 6 9 1013.6 1013.1 0.0
23/05:30pm 34.1 30.4 4.7 16 15.8 NNW 13 24 7 13 1013.8 1013.3 0.0
23/05:00pm 34.8 31.5 6.2 17 15.7 NW 13 20 7 11 1013.8 1013.3 0.0
23/04:30pm 35.0 31.1 5.4 16 16.1 NW 15 20 8 11 1014.0 1013.5 0.0
23/04:00pm 34.2 30.2 4.8 16 15.8 NNW 15 30 8 16 1014.4 1013.9 0.0
23/03:30pm 34.8 30.7 6.2 17 15.7 N 17 28 9 15 1014.7 1014.2 0.0
23/03:00pm 34.5 29.8 5.9 17 15.6 N 20 26 11 14 1015.0 1014.5 0.0
23/02:30pm 33.0 29.9 7.1 20 14.3 N 13 26 7 14 1015.5 1015.1 0.0
23/02:00pm 33.3 29.0 8.0 21 14.2 NNE 20 32 11 17 1015.9 1015.5 0.0
23/01:30pm 32.7 28.7 8.2 22 13.8 NE 19 26 10 14 1016.3 1015.9 0.0
23/01:00pm 32.4 29.0 9.2 24 13.2 NNE 17 22 9 12 1016.8 1016.4 0.0
23/12:30pm 31.5 28.1 9.1 25 12.7 NNE 17 22 9 12 1017.4 1016.9 0.0
23/12:00pm 29.8 26.7 8.8 27 11.7 N 15 24 8 13 1017.8 1017.3 0.0
23/11:30am 28.6 25.2 9.3 30 10.8 NE 17 22 9 12 1017.9 1017.4 0.0
23/11:00am 27.4 25.3 8.3 30 10.5 N 9 11 5 6 1018.9 1018.5 0.0
23/10:30am 27.8 25.7 8.1 29 10.8 NNE 9 15 5 8 1019.3 1018.9 0.0
23/10:00am 27.1 25.1 10.3 35 9.5 NE 11 17 6 9 1019.2 1018.8 0.0
23/09:30am 25.5 22.7 10.1 38 8.6 NNE 15 19 8 10 1019.1 1018.7 0.0
23/09:00am 24.7 23.5 11.6 44 7.5 NE 9 13 5 7 1019.3 1018.9 0.0
23/08:30am 22.1 21.2 11.5 51 6.0 N 7 11 4 6 1019.3 1018.9 0.0
23/08:00am 21.7 19.7 10.2 48 6.3 NNW 11 17 6 9 1018.6 1018.1 0.0
23/07:30am 20.8 19.1 11.2 54 5.4 N 11 15 6 8 1017.8 1017.3 0.0
23/07:00am 21.4 17.4 9.0 45 6.7 SSE 20 28 11 15 1019.2 1018.8 0.0
23/06:46am 21.4 15.8 8.7 44 6.8 SSE 28 35 15 19 1019.2 1018.8 0.0
23/06:30am 22.0 20.4 7.8 40 7.5 NNW 6 9 3 5 1017.5 1017.0 0.0
23/06:00am 22.4 20.3 8.1 40 7.6 NNW 9 13 5 7 1016.8 1016.4 0.0
23/05:30am 22.3 18.6 8.1 40 7.5 N 17 20 9 11 1016.5 1016.1 0.0
23/05:00am 21.9 17.9 9.1 44 6.9 NNW 20 24 11 13 1017.1 1016.6 0.0
23/04:30am 20.2 18.0 9.5 50 5.8 N 11 17 6 9 1017.3 1016.8 0.0
23/04:00am 20.0 18.8 9.6 51 5.6 NNE 6 - 3 - - 1017.2 -
23/03:30am 17.5 17.5 9.7 60 4.2 CALM 0 0 0 0 1017.4 1016.9 0.0
23/03:00am 18.0 16.8 10.4 61 4.1 SE 7 17 4 9 1018.0 1017.5 0.0
23/02:30am 15.6 14.4 9.5 67 3.2 SSW 6 9 3 5 1017.6 1017.1 0.0
23/02:00am 15.8 15.2 9.0 64 3.5 W 2 6 1 3 1017.4 1016.9 0.0
23/01:30am 16.2 16.1 9.4 64 3.6 CALM 0 0 0 0 1017.6 1017.1 0.0
23/01:00am 17.5 16.3 9.7 60 4.1 NW 6 7 3 4 1017.8 1017.3 0.0
23/12:30am 17.6 17.4 9.0 57 4.5 CALM 0 0 0 0 1018.0 1017.5 0.0
23/12:00am 18.8 18.6 9.0 53 5.2 CALM 0 0 0 0 1018.2 1017.7 0.0
 
Date/Time
EDT
Temp
°C
App
Temp
°C
Dew
Point
Rel
Hum
%
Delta-T
°C
Wind Press
QNH
hPa
Press
MSL
hPa
Rain
since 9 am
mm
Dir
 
Spd
km/h
Gust
km/h
Spd
kts
Gust
kts
22/11:30pm 20.6 20.1 9.5 49 6.0 N 2 6 1 3 1018.1 1017.6 0.0
22/11:00pm 22.6 21.0 10.1 45 6.9 N 9 13 5 7 1018.4 1017.9 0.0
22/10:30pm 19.6 19.4 9.2 51 5.6 CALM 0 0 0 0 1018.1 1017.6 0.0
22/10:00pm 20.4 20.2 9.0 48 6.1 CALM 0 0 0 0 1018.0 1017.5 0.0
22/09:30pm 22.9 21.4 9.0 41 7.5 NE 7 11 4 6 1017.8 1017.3 0.0
22/09:00pm 23.8 21.5 9.0 39 8.0 NE 11 13 6 7 1017.7 1017.2 0.0
22/08:30pm 24.4 22.0 8.8 37 8.5 NE 11 13 6 7 1017.4 1016.9 0.0
22/08:00pm 25.5 23.6 8.9 35 9.1 NE 9 11 5 6 1017.1 1016.6 0.0
22/07:30pm 26.8 24.7 8.3 31 10.1 ENE 9 13 5 7 1017.1 1016.6 0.0
22/07:00pm 29.3 26.8 8.4 27 11.6 NE 11 13 6 7 1016.7 1016.3 0.0
22/06:30pm 30.7 29.2 8.4 25 12.5 N 6 9 3 5 1016.9 1016.5 0.0
22/06:00pm 31.2 29.8 8.8 25 12.6 N 6 17 3 9 1017.1 1016.6 0.0
22/05:30pm 30.8 28.4 8.5 25 12.5 NNE 11 17 6 9 1017.2 1016.7 0.0
22/05:00pm 31.5 29.6 9.1 25 12.7 NNE 9 19 5 10 1017.3 1016.8 0.0
22/04:30pm 30.9 28.3 9.2 26 12.3 N 13 20 7 11 1017.5 1017.0 0.0
22/04:00pm 31.3 28.7 9.5 26 12.4 N 13 22 7 12 1017.8 1017.3 0.0
22/03:30pm 29.5 27.1 8.5 27 11.7 N 11 19 6 10 1018.4 1017.9 0.0
22/03:00pm 30.6 27.3 9.5 27 12.0 NNE 17 28 9 15 1018.9 1018.5 0.0
22/02:30pm 29.8 28.0 9.3 28 11.6 NNW 9 20 5 11 1019.3 1018.9 0.0
22/02:00pm 29.2 25.8 9.3 29 11.2 NE 17 30 9 16 1019.8 1019.4 0.0
22/01:30pm 28.9 24.3 9.6 30 10.9 NNE 24 32 13 17 1020.4 1020.0 0.0
22/01:00pm 28.2 24.3 9.5 31 10.5 NNE 20 32 11 17 1020.8 1020.4 0.0
22/12:30pm 26.7 22.0 9.1 33 9.8 NNE 24 32 13 17 1021.4 1020.9 0.0
22/12:00pm 25.8 21.2 9.6 36 9.0 NNE 24 33 13 18 1022.0 1021.6 0.0
22/11:30am 24.1 18.6 9.3 39 8.1 NNE 28 37 15 20 1022.6 1022.2 0.0
22/11:00am 23.0 18.4 9.8 43 7.2 NE 24 32 13 17 1023.2 1022.8 0.0
22/10:30am 21.5 16.8 9.4 46 6.6 NNE 24 33 13 18 1023.7 1023.3 0.0
22/10:00am 20.3 15.9 8.9 48 6.1 NNE 22 30 12 16 1024.0 1023.6 0.0
22/09:30am 19.2 14.5 9.4 53 5.2 NNE 24 33 13 18 1024.4 1024.0 0.0
22/09:00am 17.5 13.2 9.2 58 4.4 NE 22 30 12 16 1024.5 1024.1 0.0
22/08:30am 16.5 12.8 9.4 63 3.7 NE 19 24 10 13 1024.4 1024.0 0.0
22/08:00am 14.7 12.1 9.5 71 2.7 NE 13 20 7 11 1024.3 1023.9 0.0
22/07:30am 12.6 10.8 9.4 81 1.6 E 9 11 5 6 1024.2 1023.8 0.0
22/07:00am 10.6 9.3 9.2 91 0.7 E 6 7 3 4 1024.1 1023.7 0.0
22/06:30am 9.7 8.2 8.3 91 0.7 E 6 9 3 5 1023.8 1023.4 0.0
22/06:00am 9.5 7.6 7.6 88 0.9 E 7 9 4 5 1023.6 1023.2 0.0
22/05:30am 10.7 9.1 8.6 87 1.0 NE 7 11 4 6 1023.5 1023.1 0.0
22/05:00am 10.9 8.5 8.8 87 1.0 ENE 11 15 6 8 1023.1 1022.7 0.0
22/04:30am 10.9 8.9 8.5 85 1.2 ENE 9 11 5 6 1023.3 1022.9 0.0
22/04:00am 11.6 9.7 9.0 84 1.3 E 9 15 5 8 1023.4 1023.0 0.0
22/03:30am 11.9 10.0 8.9 82 1.5 E 9 11 5 6 1023.5 1023.1 0.0
22/03:00am 12.8 10.6 9.3 79 1.8 E 11 17 6 9 1023.9 1023.5 0.0
22/02:30am 13.2 11.0 9.5 78 1.9 E 11 15 6 8 1023.9 1023.5 0.0
22/02:00am 13.8 11.3 9.6 76 2.2 E 13 19 7 10 1024.0 1023.6 0.0
22/01:30am 14.4 11.9 9.8 74 2.4 E 13 19 7 10 1024.4 1024.0 0.0
22/01:00am 14.6 12.2 10.0 74 2.4 E 13 17 7 9 1024.7 1024.3 0.0
22/12:30am 15.1 12.7 10.1 72 2.6 E 13 17 7 9 1025.0 1024.6 0.0
22/12:00am 16.1 13.4 10.4 69 3.0 E 15 20 8 11 1025.3 1024.8 0.0
 
Date/Time
EDT
Temp
°C
App
Temp
°C
Dew
Point
Rel
Hum
%
Delta-T
°C
Wind Press
QNH
hPa
Press
MSL
hPa
Rain
since 9 am
mm
Dir
 
Spd
km/h
Gust
km/h
Spd
kts
Gust
kts
21/11:30pm 16.7 14.0 10.5 67 3.3 E 15 20 8 11 1025.4 1025.0 0.0
21/11:00pm 17.3 14.8 10.9 66 3.5 E 15 20 8 11 1025.2 1024.7 0.0

Other Formats:

Comma delimited format used in spreadsheet applications
http://www.bom.gov.au/fwo/IDN60801/IDN60801.95709.axf

JavaScript Object Notation format (JSON) in row-major order
http://www.bom.gov.au/fwo/IDN60801/IDN60801.95709.json